createdAt,value
2022-11-14T00:00:25.438Z,32.88
2022-11-14T00:02:51.806Z,33.90
2022-11-14T00:05:21.173Z,34.35
2022-11-14T00:07:48.089Z,30.73
2022-11-14T00:10:15.556Z,30.88
2022-11-14T00:12:42.071Z,29.63
2022-11-14T00:15:09.206Z,30.08
2022-11-14T00:17:35.457Z,32.80
2022-11-14T00:20:01.801Z,28.58
2022-11-14T00:22:30.987Z,28.15
2022-11-14T00:24:58.539Z,29.75
2022-11-14T00:27:26.059Z,28.10
2022-11-14T00:29:52.205Z,26.77
2022-11-14T00:32:19.112Z,25.35
2022-11-14T00:34:45.284Z,26.38
2022-11-14T00:37:11.556Z,24.05
2022-11-14T00:39:41.003Z,25.88
2022-11-14T00:42:07.763Z,24.02
2022-11-14T00:44:33.912Z,24.40
2022-11-14T00:47:00.521Z,25.10
2022-11-14T00:49:27.294Z,25.17
2022-11-14T00:51:54.775Z,24.05
2022-11-14T00:54:21.297Z,25.15
2022-11-14T00:56:51.403Z,24.90
2022-11-14T00:59:18.138Z,26.70
2022-11-14T01:01:44.497Z,22.55
2022-11-14T01:04:12.292Z,24.25
2022-11-14T01:06:39.938Z,24.65
2022-11-14T01:09:07.794Z,27.60
2022-11-14T01:11:35.227Z,25.35
2022-11-14T01:14:04.384Z,26.05
2022-11-14T01:16:31.476Z,26.08
2022-11-14T01:18:57.987Z,25.02
2022-11-14T01:21:26.195Z,29.38
2022-11-14T01:23:52.778Z,27.27
2022-11-14T01:26:19.595Z,26.75
2022-11-14T01:28:45.857Z,27.23
2022-11-14T01:31:19.689Z,27.35
2022-11-14T01:33:47.473Z,26.90
2022-11-14T01:36:14.682Z,28.00
2022-11-14T01:38:41.379Z,29.75
2022-11-14T01:41:09.359Z,29.45
2022-11-14T01:43:37.305Z,30.00
2022-11-14T01:46:05.990Z,27.63
2022-11-14T01:48:44.584Z,28.25
2022-11-14T01:51:24.997Z,27.98
2022-11-14T01:53:56.054Z,27.20
2022-11-14T01:56:30.945Z,26.00
2022-11-14T01:59:03.371Z,28.90
2022-11-14T02:01:31.735Z,27.25
2022-11-14T02:04:06.671Z,28.15
2022-11-14T02:06:34.792Z,26.08
2022-11-14T02:09:03.912Z,29.98
2022-11-14T02:11:32.891Z,30.38
2022-11-14T02:14:00.348Z,29.83
2022-11-14T02:16:27.792Z,29.63
2022-11-14T02:18:53.981Z,28.33
2022-11-14T02:21:23.030Z,28.83
2022-11-14T02:23:50.663Z,30.42
2022-11-14T02:26:20.864Z,33.13
2022-11-14T02:28:47.390Z,38.67
2022-11-14T02:31:14.351Z,34.85
2022-11-14T02:33:42.204Z,32.53
2022-11-14T02:36:10.832Z,32.55
2022-11-14T02:38:39.937Z,32.70
2022-11-14T02:41:06.957Z,30.10
2022-11-14T02:43:33.460Z,33.28
2022-11-14T02:46:04.407Z,30.85
2022-11-14T02:48:32.662Z,31.80
2022-11-14T02:50:59.054Z,30.15
2022-11-14T02:53:25.324Z,30.05
2022-11-14T02:55:54.667Z,29.88
2022-11-14T02:58:20.988Z,31.95
2022-11-14T03:01:13.431Z,29.73
2022-11-14T03:03:34.053Z,29.05
2022-11-14T03:06:02.887Z,31.27
2022-11-14T03:08:29.654Z,32.30
2022-11-14T03:10:58.840Z,31.63
2022-11-14T03:13:25.533Z,31.48
2022-11-14T03:15:51.821Z,33.35
2022-11-14T03:18:18.438Z,29.98
2022-11-14T03:20:45.038Z,34.50
2022-11-14T03:23:11.368Z,30.88
2022-11-14T03:25:39.160Z,34.22
2022-11-14T03:28:08.491Z,34.63
2022-11-14T03:30:34.916Z,27.30
2022-11-14T03:33:01.537Z,28.08
2022-11-14T03:35:30.613Z,45.50
2022-11-14T03:37:57.000Z,45.55
2022-11-14T03:40:42.201Z,32.22
2022-11-14T03:43:11.436Z,26.23
2022-11-14T03:45:41.025Z,24.30
2022-11-14T03:48:08.059Z,25.42
2022-11-14T03:50:34.519Z,27.27
2022-11-14T03:53:01.671Z,26.55
2022-11-14T03:55:28.513Z,26.48
2022-11-14T03:57:55.153Z,26.27
2022-11-14T04:00:27.556Z,31.73
2022-11-14T04:02:54.021Z,28.88
2022-11-14T04:05:20.779Z,35.88
2022-11-14T04:07:47.431Z,34.42
2022-11-14T04:10:14.791Z,42.38
2022-11-14T04:12:41.178Z,38.00
2022-11-14T04:15:08.412Z,36.05
2022-11-14T04:17:39.986Z,31.92
2022-11-14T04:20:07.421Z,31.45
2022-11-14T04:22:33.618Z,30.17
2022-11-14T04:25:01.189Z,25.45
2022-11-14T04:27:28.762Z,30.00
2022-11-14T04:29:55.224Z,26.20
2022-11-14T04:32:21.331Z,23.10
2022-11-14T04:34:50.528Z,26.27
2022-11-14T04:37:16.922Z,24.20
2022-11-14T04:39:43.576Z,25.10
2022-11-14T04:42:14.160Z,24.42
2022-11-14T04:44:40.669Z,22.15
2022-11-14T04:47:07.973Z,23.17
2022-11-14T04:49:34.523Z,24.38
2022-11-14T04:52:03.517Z,25.23
2022-11-14T04:54:30.262Z,24.83
2022-11-14T04:56:57.849Z,25.60
2022-11-14T04:59:25.390Z,23.13
2022-11-14T05:01:51.767Z,25.90
2022-11-14T05:04:18.494Z,26.02
2022-11-14T05:06:44.628Z,24.35
2022-11-14T05:09:13.536Z,23.48
2022-11-14T05:11:39.624Z,23.60
2022-11-14T05:14:05.890Z,21.20
2022-11-14T05:16:33.453Z,21.70
2022-11-14T05:18:59.919Z,22.30
2022-11-14T05:21:27.300Z,21.23
2022-11-14T05:23:54.084Z,22.35
2022-11-14T05:26:23.575Z,21.38
2022-11-14T05:28:49.649Z,22.77
2022-11-14T05:31:18.123Z,22.02
2022-11-14T05:33:44.730Z,21.00
2022-11-14T05:36:13.424Z,22.80
2022-11-14T05:38:40.195Z,21.13
2022-11-14T05:41:09.195Z,20.80
2022-11-14T05:43:39.077Z,21.80
2022-11-14T05:46:08.981Z,20.05
2022-11-14T05:48:35.322Z,19.60
2022-11-14T05:51:03.527Z,20.15
2022-11-14T05:53:31.402Z,20.73
2022-11-14T05:55:58.636Z,21.13
2022-11-14T05:58:25.202Z,18.88
2022-11-14T06:00:55.726Z,17.73
2022-11-14T06:03:22.093Z,19.73
2022-11-14T06:05:48.539Z,19.60
2022-11-14T06:08:14.825Z,18.80
2022-11-14T06:10:41.147Z,19.95
2022-11-14T06:13:07.967Z,19.50
2022-11-14T06:15:34.382Z,19.48
2022-11-14T06:18:03.323Z,19.33
2022-11-14T06:20:30.001Z,19.90
2022-11-14T06:22:58.033Z,19.48
2022-11-14T06:25:24.307Z,18.38
2022-11-14T06:27:50.839Z,21.70
2022-11-14T06:30:18.196Z,21.23
2022-11-14T06:32:44.819Z,20.10
2022-11-14T06:35:15.479Z,21.70
2022-11-14T06:37:50.288Z,21.00
2022-11-14T06:40:17.043Z,22.50
2022-11-14T06:42:45.256Z,20.63
2022-11-14T06:45:12.963Z,22.88
2022-11-14T06:47:42.835Z,24.63
2022-11-14T06:50:10.772Z,23.65
2022-11-14T06:52:39.854Z,25.65
2022-11-14T06:55:06.015Z,20.80
2022-11-14T06:57:32.543Z,22.58
2022-11-14T06:59:59.819Z,23.15
2022-11-14T07:02:26.556Z,20.70
2022-11-14T07:04:54.143Z,22.52
2022-11-14T07:07:20.460Z,22.98
2022-11-14T07:09:50.703Z,22.52
2022-11-14T07:12:18.736Z,21.83
2022-11-14T07:14:45.268Z,21.23
2022-11-14T07:17:12.060Z,22.65
2022-11-14T07:19:38.756Z,25.58
2022-11-14T07:22:05.575Z,25.23
2022-11-14T07:24:32.528Z,25.05
2022-11-14T07:27:02.255Z,25.80
2022-11-14T07:29:28.955Z,26.45
2022-11-14T07:31:55.611Z,21.73
2022-11-14T07:34:22.097Z,21.75
2022-11-14T07:36:48.792Z,23.88
2022-11-14T07:39:15.054Z,22.65
2022-11-14T07:41:41.436Z,22.70
2022-11-14T07:44:11.341Z,21.30
2022-11-14T07:46:37.868Z,19.77
2022-11-14T07:49:04.810Z,21.90
2022-11-14T07:51:31.882Z,21.25
2022-11-14T07:53:58.615Z,21.63
2022-11-14T07:56:26.152Z,23.42
2022-11-14T07:58:52.704Z,20.02
2022-11-14T08:01:21.819Z,20.10
2022-11-14T08:03:49.428Z,19.98
2022-11-14T08:06:19.126Z,17.83
2022-11-14T08:08:47.119Z,19.85
2022-11-14T08:11:23.010Z,19.05
2022-11-14T08:14:01.707Z,21.25
2022-11-14T08:16:30.784Z,22.27
2022-11-14T08:18:57.433Z,22.92
2022-11-14T08:21:23.974Z,20.92
2022-11-14T08:23:50.371Z,19.52
2022-11-14T08:26:17.131Z,20.45
2022-11-14T08:28:44.117Z,19.40
2022-11-14T08:31:11.069Z,21.50
2022-11-14T08:33:41.125Z,21.73
2022-11-14T08:36:09.794Z,21.50
2022-11-14T08:38:38.969Z,19.70
2022-11-14T08:41:07.331Z,19.00
2022-11-14T08:43:35.164Z,21.25
2022-11-14T08:46:03.269Z,17.55
2022-11-14T08:48:32.324Z,18.45
2022-11-14T08:51:05.400Z,18.05
2022-11-14T08:53:32.253Z,16.83
2022-11-14T08:55:59.025Z,15.82
2022-11-14T08:58:25.556Z,18.35
2022-11-14T09:00:53.596Z,23.98
2022-11-14T09:03:20.341Z,24.60
2022-11-14T09:05:46.731Z,24.25
2022-11-14T09:08:17.299Z,23.25
2022-11-14T09:10:44.248Z,22.10
2022-11-14T09:13:10.991Z,23.73
2022-11-14T09:15:37.766Z,22.95
2022-11-14T09:18:04.469Z,24.15
2022-11-14T09:20:34.189Z,21.40
2022-11-14T09:23:03.933Z,22.48
2022-11-14T09:25:33.731Z,23.45
2022-11-14T09:28:00.443Z,22.08
2022-11-14T09:30:26.968Z,22.05
2022-11-14T09:32:54.511Z,23.20
2022-11-14T09:35:22.127Z,20.85
2022-11-14T09:37:48.348Z,20.00
2022-11-14T09:40:16.315Z,20.52
2022-11-14T09:43:08.126Z,22.98
2022-11-14T09:45:36.497Z,20.80
2022-11-14T09:48:10.662Z,19.83
2022-11-14T09:50:43.275Z,19.75
2022-11-14T09:53:17.887Z,20.73
2022-11-14T09:55:44.697Z,20.10
2022-11-14T09:58:18.794Z,18.95
2022-11-14T10:00:53.649Z,18.63
2022-11-14T10:03:25.633Z,21.80
2022-11-14T10:06:19.028Z,23.63
2022-11-14T10:09:01.141Z,22.30
2022-11-14T10:11:36.473Z,21.20
2022-11-14T10:14:25.377Z,20.85
2022-11-14T10:17:05.243Z,20.70
2022-11-14T10:19:42.829Z,19.85
2022-11-14T10:22:21.925Z,19.65
2022-11-14T10:25:22.004Z,19.45
2022-11-14T10:28:04.989Z,17.90
2022-11-14T10:30:41.827Z,18.75
2022-11-14T10:33:20.871Z,17.75
2022-11-14T10:35:55.867Z,16.48
2022-11-14T10:38:31.102Z,15.68
2022-11-14T10:41:01.550Z,14.70
2022-11-14T10:43:33.707Z,14.65
2022-11-14T10:46:07.117Z,14.80
2022-11-14T10:48:36.608Z,13.85
2022-11-14T10:51:06.831Z,13.40
2022-11-14T10:53:47.819Z,14.65
2022-11-14T10:56:15.539Z,12.10
2022-11-14T10:58:49.057Z,13.50
2022-11-14T11:01:41.072Z,12.02
2022-11-14T11:04:32.625Z,9.57
2022-11-14T11:07:01.173Z,10.10
2022-11-14T11:09:45.491Z,10.70
2022-11-14T11:12:19.036Z,10.80
2022-11-14T11:14:46.847Z,11.02
2022-11-14T11:17:30.141Z,10.27
2022-11-14T11:20:26.814Z,9.30
2022-11-14T11:23:06.710Z,6.78
2022-11-14T11:25:34.881Z,7.70
2022-11-14T11:28:09.522Z,6.80
2022-11-14T11:30:36.351Z,5.55
2022-11-14T11:33:25.955Z,4.22
2022-11-14T11:35:55.399Z,4.30
2022-11-14T11:38:22.668Z,4.40
2022-11-14T11:40:53.780Z,3.65
2022-11-14T11:43:39.582Z,3.85
2022-11-14T11:46:14.776Z,3.50
2022-11-14T11:48:43.776Z,3.00
2022-11-14T11:51:27.165Z,3.35
2022-11-14T11:54:04.849Z,3.08
2022-11-14T11:56:35.435Z,2.80
2022-11-14T11:59:25.436Z,2.80
2022-11-14T12:01:54.968Z,2.42
2022-11-14T12:04:24.273Z,2.10
2022-11-14T12:07:00.336Z,2.80
2022-11-14T12:10:03.576Z,2.80
2022-11-14T12:12:31.085Z,2.10
2022-11-14T12:15:13.768Z,2.13
2022-11-14T12:18:11.788Z,2.47
2022-11-14T12:21:05.560Z,2.28
2022-11-14T12:24:04.176Z,2.20
2022-11-14T12:26:51.907Z,1.95
2022-11-14T12:29:41.259Z,2.30
2022-11-14T12:32:10.679Z,2.60
2022-11-14T12:34:42.267Z,2.40
2022-11-14T12:37:19.597Z,2.60
2022-11-14T12:39:45.974Z,2.65
2022-11-14T12:42:17.273Z,2.42
2022-11-14T12:44:44.067Z,2.50
2022-11-14T12:47:25.952Z,2.40
2022-11-14T12:50:22.383Z,2.88
2022-11-14T12:52:54.179Z,2.45
2022-11-14T12:55:51.482Z,2.45
2022-11-14T12:58:27.027Z,2.25
2022-11-14T13:01:11.597Z,2.65
2022-11-14T13:03:54.018Z,2.85
2022-11-14T13:06:26.977Z,2.70
2022-11-14T13:09:28.498Z,2.50
2022-11-14T13:12:07.481Z,2.85
2022-11-14T13:14:47.612Z,2.60
2022-11-14T13:17:40.145Z,2.75
2022-11-14T13:20:41.916Z,2.10
2022-11-14T13:23:08.887Z,2.03
2022-11-14T13:25:38.896Z,2.25
2022-11-14T13:28:34.801Z,2.65
2022-11-14T13:31:22.876Z,1.90
2022-11-14T13:33:51.674Z,2.20
2022-11-14T13:36:28.350Z,2.33
2022-11-14T13:39:27.771Z,2.40
2022-11-14T13:42:14.909Z,2.30
2022-11-14T13:44:58.195Z,2.53
2022-11-14T13:47:39.954Z,3.08
2022-11-14T13:50:09.441Z,2.92
2022-11-14T13:52:38.254Z,3.13
2022-11-14T13:55:06.062Z,2.80
2022-11-14T13:57:47.786Z,2.50
2022-11-14T14:00:20.436Z,2.00
2022-11-14T14:03:10.820Z,3.25
2022-11-14T14:05:51.657Z,2.80
2022-11-14T14:08:30.186Z,2.30
2022-11-14T14:11:11.040Z,2.70
2022-11-14T14:13:55.628Z,2.28
2022-11-14T14:16:34.771Z,2.70
2022-11-14T14:19:12.236Z,2.88
2022-11-14T14:21:48.204Z,2.20
2022-11-14T14:24:30.217Z,2.40
2022-11-14T14:27:18.228Z,2.28
2022-11-14T14:29:53.933Z,3.10
2022-11-14T14:32:22.463Z,2.63
2022-11-14T14:34:49.221Z,2.80
2022-11-14T14:37:21.710Z,2.80
2022-11-14T14:40:05.852Z,3.65
2022-11-14T14:43:27.478Z,2.90
2022-11-14T14:45:58.423Z,3.22
2022-11-14T14:48:29.876Z,2.72
2022-11-14T14:50:59.952Z,3.28
2022-11-14T14:53:29.991Z,3.60
2022-11-14T14:55:59.417Z,3.08
2022-11-14T14:58:33.131Z,3.10
2022-11-14T15:01:05.874Z,3.60
2022-11-14T15:03:37.126Z,2.95
2022-11-14T15:06:05.447Z,2.85
2022-11-14T15:08:34.797Z,3.45
2022-11-14T15:11:02.900Z,3.03
2022-11-14T15:13:30.472Z,3.15
2022-11-14T15:15:57.195Z,4.03
2022-11-14T15:18:29.836Z,3.67
2022-11-14T15:21:13.073Z,3.70
2022-11-14T15:23:40.649Z,3.78
2022-11-14T15:26:10.139Z,3.15
2022-11-14T15:28:36.643Z,3.67
2022-11-14T15:31:05.854Z,3.47
2022-11-14T15:33:37.509Z,4.05
2022-11-14T15:36:13.111Z,3.97
2022-11-14T15:38:44.684Z,4.22
2022-11-14T15:41:21.797Z,4.68
2022-11-14T15:43:54.047Z,4.05
2022-11-14T15:46:31.274Z,4.45
2022-11-14T15:49:00.868Z,4.30
2022-11-14T15:51:46.505Z,4.88
2022-11-14T15:54:25.274Z,4.43
2022-11-14T15:56:52.931Z,4.85
2022-11-14T15:59:19.848Z,5.25
2022-11-14T16:01:48.514Z,4.63
2022-11-14T16:04:20.537Z,4.45
2022-11-14T16:06:47.039Z,4.82
2022-11-14T16:09:18.071Z,4.63
2022-11-14T16:11:44.075Z,5.88
2022-11-14T16:14:10.443Z,5.18
2022-11-14T16:16:38.114Z,5.32
2022-11-14T16:19:04.748Z,5.00
2022-11-14T16:21:36.025Z,5.53
2022-11-14T16:24:02.195Z,6.50
2022-11-14T16:26:29.680Z,8.20
2022-11-14T16:28:57.118Z,6.75
2022-11-14T16:31:24.714Z,6.20
2022-11-14T16:33:50.901Z,6.60
2022-11-14T16:36:17.269Z,7.15
2022-11-14T16:38:51.092Z,6.03
2022-11-14T16:41:21.302Z,6.07
2022-11-14T16:43:47.828Z,6.50
2022-11-14T16:46:14.829Z,5.80
2022-11-14T16:48:41.970Z,5.53
2022-11-14T16:51:33.108Z,6.10
2022-11-14T16:54:01.558Z,5.93
2022-11-14T16:56:28.350Z,6.15
2022-11-14T16:58:57.422Z,4.90
2022-11-14T17:01:23.664Z,5.20
2022-11-14T17:03:50.594Z,4.65
2022-11-14T17:06:17.070Z,5.50
2022-11-14T17:08:43.279Z,5.68
2022-11-14T17:11:13.794Z,5.28
2022-11-14T17:13:41.572Z,6.30
2022-11-14T17:16:08.699Z,5.75
2022-11-14T17:18:38.831Z,5.97
2022-11-14T17:21:08.974Z,5.60
2022-11-14T17:23:35.382Z,6.75
2022-11-14T17:26:04.969Z,6.90
2022-11-14T17:28:34.005Z,8.18
2022-11-14T17:31:02.095Z,7.00
2022-11-14T17:33:29.132Z,7.35
2022-11-14T17:35:55.846Z,8.05
2022-11-14T17:38:22.486Z,7.35
2022-11-14T17:40:49.301Z,7.40
2022-11-14T17:43:18.160Z,7.53
2022-11-14T17:45:56.912Z,7.85
2022-11-14T17:48:23.298Z,6.97
2022-11-14T17:50:49.495Z,6.32
2022-11-14T17:53:16.285Z,7.07
2022-11-14T17:55:44.744Z,7.25
2022-11-14T17:58:10.928Z,6.80
2022-11-14T18:00:38.379Z,6.28
2022-11-14T18:03:07.886Z,7.75
2022-11-14T18:05:35.317Z,6.80
2022-11-14T18:08:03.509Z,7.28
2022-11-14T18:10:29.813Z,6.40
2022-11-14T18:12:56.606Z,5.97
2022-11-14T18:15:27.716Z,7.53
2022-11-14T18:17:54.488Z,7.07
2022-11-14T18:20:23.743Z,7.05
2022-11-14T18:22:50.104Z,7.05
2022-11-14T18:25:16.649Z,8.05
2022-11-14T18:27:43.435Z,7.15
2022-11-14T18:30:34.748Z,7.35
2022-11-14T18:32:58.497Z,8.15
2022-11-14T18:35:27.329Z,8.80
2022-11-14T18:37:53.872Z,8.10
2022-11-14T18:40:22.493Z,8.70
2022-11-14T18:42:50.612Z,8.57
2022-11-14T18:45:17.225Z,8.55
2022-11-14T18:47:43.753Z,8.30
2022-11-14T18:50:11.390Z,8.80
2022-11-14T18:52:40.191Z,7.03
2022-11-14T18:55:08.180Z,8.30
2022-11-14T18:57:35.911Z,8.27
2022-11-14T19:00:02.369Z,9.63
2022-11-14T19:02:28.792Z,8.15
2022-11-14T19:04:56.131Z,7.97
2022-11-14T19:07:22.677Z,7.78
2022-11-14T19:09:52.317Z,7.85
2022-11-14T19:12:23.619Z,6.40
2022-11-14T19:14:50.776Z,6.28
2022-11-14T19:17:20.833Z,5.72
2022-11-14T19:19:48.612Z,7.32
2022-11-14T19:22:15.392Z,6.70
2022-11-14T19:24:43.199Z,7.18
2022-11-14T19:27:12.650Z,6.90
2022-11-14T19:29:39.282Z,7.13
2022-11-14T19:32:06.236Z,6.82
2022-11-14T19:34:32.794Z,8.60
2022-11-14T19:37:00.720Z,8.95
2022-11-14T19:39:28.318Z,9.98
2022-11-14T19:41:55.169Z,9.60
2022-11-14T19:44:26.118Z,9.27
2022-11-14T19:46:52.484Z,9.77
2022-11-14T19:49:19.147Z,9.55
2022-11-14T19:51:45.384Z,9.55
2022-11-14T19:54:13.483Z,10.50
2022-11-14T19:56:40.179Z,10.90
2022-11-14T19:59:13.752Z,9.10
2022-11-14T20:01:49.679Z,9.85
2022-11-14T20:04:16.559Z,7.95
2022-11-14T20:06:44.552Z,8.85
2022-11-14T20:09:13.908Z,9.27
2022-11-14T20:11:40.914Z,7.90
2022-11-14T20:14:08.519Z,8.93
2022-11-14T20:16:37.076Z,8.57
2022-11-14T20:19:08.359Z,8.55
2022-11-14T20:21:38.473Z,8.23
2022-11-14T20:24:05.226Z,7.82
2022-11-14T20:26:32.262Z,7.50
2022-11-14T20:28:58.666Z,7.63
2022-11-14T20:31:28.483Z,8.45
2022-11-14T20:34:08.410Z,8.48
2022-11-14T20:37:08.906Z,7.93
2022-11-14T20:39:24.261Z,7.50
2022-11-14T20:41:50.487Z,8.38
2022-11-14T20:44:19.131Z,8.63
2022-11-14T20:46:46.149Z,8.93
2022-11-14T20:49:14.397Z,8.88
2022-11-14T20:51:43.672Z,8.85
2022-11-14T20:54:11.882Z,7.50
2022-11-14T20:56:38.367Z,8.60
2022-11-14T20:59:06.474Z,8.38
2022-11-14T21:01:32.998Z,7.70
2022-11-14T21:04:01.517Z,7.55
2022-11-14T21:06:30.995Z,7.93
2022-11-14T21:09:00.163Z,7.90
2022-11-14T21:11:28.875Z,8.85
2022-11-14T21:14:01.940Z,6.50
2022-11-14T21:16:33.832Z,6.78
2022-11-14T21:19:04.257Z,7.70
2022-11-14T21:21:32.812Z,7.40
2022-11-14T21:24:02.161Z,8.15
2022-11-14T21:26:34.580Z,7.80
2022-11-14T21:29:10.901Z,8.43
2022-11-14T21:31:48.720Z,8.05
2022-11-14T21:34:21.188Z,8.57
2022-11-14T21:36:48.337Z,7.50
2022-11-14T21:39:22.751Z,7.70
2022-11-14T21:41:51.110Z,8.35
2022-11-14T21:44:19.312Z,7.72
2022-11-14T21:46:49.875Z,7.90
2022-11-14T21:49:16.357Z,8.05
2022-11-14T21:51:42.565Z,7.75
2022-11-14T21:54:09.303Z,7.45
2022-11-14T21:56:39.933Z,7.53
2022-11-14T21:59:18.906Z,6.40
2022-11-14T22:01:59.623Z,7.30
2022-11-14T22:04:27.712Z,7.35
2022-11-14T22:06:54.596Z,6.95
2022-11-14T22:09:21.610Z,8.20
2022-11-14T22:11:50.901Z,6.93
2022-11-14T22:14:17.779Z,6.78
2022-11-14T22:16:45.266Z,8.00
2022-11-14T22:19:11.977Z,7.35
2022-11-14T22:21:39.812Z,7.10
2022-11-14T22:24:07.995Z,6.70
2022-11-14T22:26:35.406Z,7.10
2022-11-14T22:29:04.624Z,6.30
2022-11-14T22:31:30.971Z,7.63
2022-11-14T22:34:00.838Z,7.35
2022-11-14T22:36:29.451Z,7.28
2022-11-14T22:38:57.039Z,6.75
2022-11-14T22:41:30.678Z,6.38
2022-11-14T22:43:59.318Z,7.05
2022-11-14T22:46:28.547Z,6.60
2022-11-14T22:48:55.236Z,6.35
2022-11-14T22:51:24.949Z,6.65
2022-11-14T22:53:53.338Z,6.68
2022-11-14T22:56:21.184Z,5.93
2022-11-14T22:58:48.468Z,6.00
2022-11-14T23:01:23.797Z,6.20
2022-11-14T23:03:57.045Z,7.20
2022-11-14T23:06:23.520Z,6.63
2022-11-14T23:08:50.821Z,6.65
2022-11-14T23:11:18.555Z,6.63
2022-11-14T23:13:46.708Z,6.30
2022-11-14T23:16:13.511Z,5.95
2022-11-14T23:18:40.513Z,5.97
2022-11-14T23:21:11.790Z,5.30
2022-11-14T23:23:38.544Z,7.18
2022-11-14T23:26:09.038Z,6.57
2022-11-14T23:28:37.192Z,6.75
2022-11-14T23:31:05.522Z,6.47
2022-11-14T23:33:32.822Z,6.25
2022-11-14T23:35:59.180Z,6.60
2022-11-14T23:38:30.721Z,5.93
2022-11-14T23:40:57.729Z,6.78
2022-11-14T23:43:25.308Z,6.25
2022-11-14T23:45:51.950Z,6.72
2022-11-14T23:48:18.836Z,5.82
2022-11-14T23:50:45.148Z,5.55
2022-11-14T23:53:12.449Z,5.88
2022-11-14T23:55:42.164Z,6.00
2022-11-14T23:58:08.668Z,5.53
